Pagrindinis puslapis
METAR-TAF:

METAR-TAF

Oro uostai :

Čenajus, Indija

platuma: 13-00N, ilguma: 080-11E, Aukštis: 10 m

Dabartinis oras

Ataskaita buvo paskelbta 32 minutes, ne 04:00 UTC
Vėjas 8 kt iš Pietų/Pietvakarių
Temperatūra 33°C
Drėgmė 63%
Slėgis 1008 hPa
Matomumas: 6000 m
Mažai debesys ne aukštis 2000 ft
Išsisklaidę debesys ne aukštis 10000 ft

METAR: VOMM 300400Z 21008KT 6000 FEW020 SCT100 33/25 Q1008 NOSIG

Laikas: 10:02 (04:32 UTC)

Prognozė

Ataskaita buvo paskelbta 5 valandos ir 32 minutes, ne 23:00 UTC
Prognozė galioja nuo 30 metu 00 UTC su 31 metu 06 UTC
Vėjas 5 kt iš Pietų/Pietvakarių
Matomumas: 6000 m
Mažai debesys ne aukštis 2000 ft
Tapsmas
nuo 30 metu 09 UTC su 30 metu 10 UTC
Vėjas 10 kt iš Pietryčių
Tapsmas
nuo 30 metu 18 UTC su 30 metu 19 UTC
Vėjas 5 kt iš Pietų/Pietvakarių

TAF: VOMM 292300Z 3000/3106 21005KT 6000 FEW020 BECMG 3009/3010 14010KT BECMG 3018/3019 21005KT

Orai ataskaitas ir orų prognozės (METAR, TAF).

turimą stotys yra geltonos ir raudonos taškus žemėlapyje.

Perkelti pele per norėdami pamatyti stoties vardą.

Tada spustelėkite, norėdami matyti oro stebėjimo ir prognozės.

Norėdami pakeisti žemėlapį: spustelėkite ant žalios mygtukų su juodo kryžiaus žemyn,; žalią mygtuką su brūkšneliu, jei norite nutolinti; arba žalių rodyklių gretimoms žemėlapius.


METAR-TAF: